Pagina principale
METAR-TAF:

METAR-TAF

Aeroporti :

Trapani, Italia

Aeroporto di Trapani-Birgi

latitudine: 37-55N, longitudine: 012-30E, altezza: 7 m

Osservazione

Il bollettino è stato emesso 1 ora e 15 minuti fa, alle 10:55 UTC
Vento 8 kt da nord-ovest
Temperature 17°C
Umidità 72%
Pressione 1017 hPa
Visibilità 10 km o più
Nubi sparse ad un'altezza di 2500 ft

METAR: LICT 191055Z 31008KT 9999 SCT025 17/12 Q1017 RMK SCT VIS MIN 9999 WIND THR13 31007KT BLU

Ora: 13:10 (12:10 UTC)

Previsione

Il bollettino è stato emesso 1 ora e 10 minuti fa, alle 11:00 UTC
Previsione valida dal 19 alle 12 UTC al 19 alle 21 UTC
Vento 12 kt da nord/nord-ovest
Visibilità 10 km o più
Nubi sparse ad un'altezza di 2500 ft

TAF: LICT 191100Z 1912/1921 33012KT 9999 SCT025

Osservazioni e previsioni meteorologiche di più di 4000 aeroporti (messaggi METAR e TAF).

Le stazioni disponibili sono rappresentate dai dischi gialli e rossi sulla carta.

Puntare il mouse per vedere il nome della stazione.

Clicca sopra per visualizzare le osservazioni e previsioni meteorologiche.

Per cambiare la mappa : fare clic sui pulsanti verdi con una croce nera per ingrandire, il pulsante verde con un trattino per diminuire, o sulla freccia verde per le mappe adiacenti.


METAR-TAF: